Donnelly, ID (83615)

5:47 PM MST on February 26, 2017 (GMT -0700)
MBKSI1 | | Change Station
Active Advisory: Winter Weather Advisory

Elev 6576 ft 44.63 °N, 115.79 °W | Updated 1 day ago

Overcast
Overcast
17.0 °F
Feels Like 17 °F
N
-
Wind Variable Wind from North

Today
High -- | Low -- °F
--% Chance of Precip.
Yesterday
High -- | Low -- °F
Precip. -- in
Pressure 29.69 in
Visibility 1.5 miles
Clouds Overcast 2000 ft
Windchill 17 °F
Dew Point Not available.
Humidity Not available.
Rainfall 0.00 in
Snow Depth Not available.
7:26 AM 6:28 PM
New Moon, 0% visible
METAR KMYL 262351Z AUTO 19007KT 1 1/2SM -SN BR OVC020 M05/M07 A2957 RMK AO2 SLP052 P0001 60009 T10501072 11044 21050 56010
Pressure 29.69 in
Visibility 1.5 miles
Clouds Overcast 2000 ft
Windchill 17 °F
Dew Point Not available.
Humidity Not available.
Rainfall 0.00 in
Snow Depth Not available.
7:26 AM 6:28 PM
New Moon, 0% visible
METAR KMYL 262351Z AUTO 19007KT 1 1/2SM -SN BR OVC020 M05/M07 A2957 RMK AO2 SLP052 P0001 60009 T10501072 11044 21050 56010

Get Your Daily Forecast Email!

Thanks for signing up!

Be on the lookout for a verification email in your inbox.

You'll start receiving the daily forecast at 8 AM.

×

10-Day Weather Forecast

Almanac

Astronomy

Feb. 26, 2017 Rise Set
Actual Time
Civil Twilight
Nautical Twilight
Astronomical Twilight
Moon
Length of Visible Light
Length of Day
Tomorrow will be .
, % of the Moon is Illuminated

Today's Extremes

State Highs State Lows

Community

WunderPhotos

Upload Photos

1,962,540 photos uploaded!

WunderBlog® & News

Nearby

Air Quality

  Air Quality AQ Index Pollutant
Not available.

Snow Depth

Station Depth Elevation

Earthquake Activity

City Distance Mag. Time & Date
Minimum magnitude displayed is 2.5.

Coastal Water Temperatures

Place Temperature

Stations

Nearby Weather Stations

Station Location Temp. Windchill Dew Point Humidity Wind Precip. Elev Updated Type
                   

Watches & Warnings

Winter Weather Advisory
Issued: 2:46 PM MST Feb. 26, 2017 – National Weather Service

... Winter Weather Advisory remains in effect until 11 am MST
Monday...

* snow amounts... storm totals of 3 to 5 inches anticipated in the
valleys with 5 to 10 inches above 6000 feet.

* Winds... southerly winds of 10 to 20 mph today will create areas
of blowing snow into the evening hours. Winds will dissipate to
less than 10 mph tonight and Monday.

* Timing... the snow will continue through Monday morning, with the
heaviest snowfall expected to occur through this evening.

* Impacts... snow will create hazardous travel conditions due to periods
of reduced visibility and slick roads.

Precautionary/preparedness actions...

A Winter Weather Advisory for snow means that periods of snow
will primarily cause travel difficulties. Be prepared for snow
covered roads and limited visibilities... and use caution while
driving.